sensor_id;sensor_type;location;lat;lon;timestamp;temperature;humidity
3860;DHT22;1945;52.036;8.614;2023-02-12T00:01:13;7.90;99.90
3860;DHT22;1945;52.036;8.614;2023-02-12T00:03:40;7.90;99.90
3860;DHT22;1945;52.036;8.614;2023-02-12T00:06:08;8.30;99.90
3860;DHT22;1945;52.036;8.614;2023-02-12T00:08:35;8.30;99.90
3860;DHT22;1945;52.036;8.614;2023-02-12T00:11:09;7.90;99.90
3860;DHT22;1945;52.036;8.614;2023-02-12T00:13:37;8.30;99.90
3860;DHT22;1945;52.036;8.614;2023-02-12T00:16:05;7.90;99.90
3860;DHT22;1945;52.036;8.614;2023-02-12T00:18:32;7.90;99.90
3860;DHT22;1945;52.036;8.614;2023-02-12T00:21:00;7.90;99.90
3860;DHT22;1945;52.036;8.614;2023-02-12T00:23:26;8.40;99.90
3860;DHT22;1945;52.036;8.614;2023-02-12T00:25:53;7.90;99.90
3860;DHT22;1945;52.036;8.614;2023-02-12T00:28:21;8.30;99.90
3860;DHT22;1945;52.036;8.614;2023-02-12T00:30:48;8.30;99.90
3860;DHT22;1945;52.036;8.614;2023-02-12T00:33:15;8.20;99.90
3860;DHT22;1945;52.036;8.614;2023-02-12T00:35:42;8.30;99.90
3860;DHT22;1945;52.036;8.614;2023-02-12T00:38:08;7.90;99.90
3860;DHT22;1945;52.036;8.614;2023-02-12T00:40:35;8.40;99.90
3860;DHT22;1945;52.036;8.614;2023-02-12T00:43:01;7.90;99.90
3860;DHT22;1945;52.036;8.614;2023-02-12T00:45:29;8.30;99.90
3860;DHT22;1945;52.036;8.614;2023-02-12T00:47:56;8.50;99.90
3860;DHT22;1945;52.036;8.614;2023-02-12T00:50:23;8.40;99.90
3860;DHT22;1945;52.036;8.614;2023-02-12T00:52:49;7.90;99.90
3860;DHT22;1945;52.036;8.614;2023-02-12T00:55:16;7.90;99.90
3860;DHT22;1945;52.036;8.614;2023-02-12T00:57:43;7.90;99.90
3860;DHT22;1945;52.036;8.614;2023-02-12T01:00:11;8.40;99.90
3860;DHT22;1945;52.036;8.614;2023-02-12T01:02:39;7.90;99.90
3860;DHT22;1945;52.036;8.614;2023-02-12T01:05:06;7.90;99.90
3860;DHT22;1945;52.036;8.614;2023-02-12T01:07:33;8.20;99.90
3860;DHT22;1945;52.036;8.614;2023-02-12T01:09:59;8.20;99.90
3860;DHT22;1945;52.036;8.614;2023-02-12T01:12:26;8.20;99.90
3860;DHT22;1945;52.036;8.614;2023-02-12T01:14:53;7.90;99.90
3860;DHT22;1945;52.036;8.614;2023-02-12T01:17:19;7.50;99.90
3860;DHT22;1945;52.036;8.614;2023-02-12T01:19:47;7.80;99.90
3860;DHT22;1945;52.036;8.614;2023-02-12T01:22:14;7.50;99.90
3860;DHT22;1945;52.036;8.614;2023-02-12T01:24:41;8.30;99.90
3860;DHT22;1945;52.036;8.614;2023-02-12T01:27:07;7.80;99.90
3860;DHT22;1945;52.036;8.614;2023-02-12T01:29:34;7.80;99.90
3860;DHT22;1945;52.036;8.614;2023-02-12T01:32:01;8.20;99.90
3860;DHT22;1945;52.036;8.614;2023-02-12T01:34:27;8.20;99.90
3860;DHT22;1945;52.036;8.614;2023-02-12T01:36:55;8.30;99.90
3860;DHT22;1945;52.036;8.614;2023-02-12T01:39:22;8.20;99.90
3860;DHT22;1945;52.036;8.614;2023-02-12T01:41:48;8.30;99.90
3860;DHT22;1945;52.036;8.614;2023-02-12T01:44:17;8.20;99.90
3860;DHT22;1945;52.036;8.614;2023-02-12T01:46:46;8.20;99.90
3860;DHT22;1945;52.036;8.614;2023-02-12T01:49:16;8.30;99.90
3860;DHT22;1945;52.036;8.614;2023-02-12T01:51:45;8.10;99.90
3860;DHT22;1945;52.036;8.614;2023-02-12T01:54:16;8.10;99.90
3860;DHT22;1945;52.036;8.614;2023-02-12T01:56:45;8.20;99.90
3860;DHT22;1945;52.036;8.614;2023-02-12T01:59:12;8.20;99.90
3860;DHT22;1945;52.036;8.614;2023-02-12T02:01:38;7.80;99.90
3860;DHT22;1945;52.036;8.614;2023-02-12T02:04:08;8.10;99.90
3860;DHT22;1945;52.036;8.614;2023-02-12T02:06:41;7.70;99.90
3860;DHT22;1945;52.036;8.614;2023-02-12T02:09:10;8.10;99.90
3860;DHT22;1945;52.036;8.614;2023-02-12T02:11:38;7.80;99.90
3860;DHT22;1945;52.036;8.614;2023-02-12T02:14:22;8.20;99.90
3860;DHT22;1945;52.036;8.614;2023-02-12T02:17:24;8.20;99.90
3860;DHT22;1945;52.036;8.614;2023-02-12T02:20:15;7.70;99.90
3860;DHT22;1945;52.036;8.614;2023-02-12T02:22:49;7.70;99.90
3860;DHT22;1945;52.036;8.614;2023-02-12T02:28:52;8.10;99.90
3860;DHT22;1945;52.036;8.614;2023-02-12T02:31:26;7.70;99.90
3860;DHT22;1945;52.036;8.614;2023-02-12T02:33:58;8.10;99.90
3860;DHT22;1945;52.036;8.614;2023-02-12T02:36:32;8.00;99.90
3860;DHT22;1945;52.036;8.614;2023-02-12T02:39:04;7.70;99.90
3860;DHT22;1945;52.036;8.614;2023-02-12T02:41:36;8.10;99.90
3860;DHT22;1945;52.036;8.614;2023-02-12T02:44:08;8.00;99.90
3860;DHT22;1945;52.036;8.614;2023-02-12T02:46:40;8.20;99.90
3860;DHT22;1945;52.036;8.614;2023-02-12T02:49:13;7.60;99.90
3860;DHT22;1945;52.036;8.614;2023-02-12T02:51:42;8.10;99.90
3860;DHT22;1945;52.036;8.614;2023-02-12T02:54:13;7.70;99.90
3860;DHT22;1945;52.036;8.614;2023-02-12T02:56:43;7.70;99.90
3860;DHT22;1945;52.036;8.614;2023-02-12T02:59:12;8.00;99.90
3860;DHT22;1945;52.036;8.614;2023-02-12T03:01:43;8.10;99.90
3860;DHT22;1945;52.036;8.614;2023-02-12T03:04:16;7.80;99.90
3860;DHT22;1945;52.036;8.614;2023-02-12T03:06:47;7.70;99.90
3860;DHT22;1945;52.036;8.614;2023-02-12T03:09:18;7.70;99.90
3860;DHT22;1945;52.036;8.614;2023-02-12T03:11:48;7.90;99.90
3860;DHT22;1945;52.036;8.614;2023-02-12T03:14:18;7.20;99.90
3860;DHT22;1945;52.036;8.614;2023-02-12T03:16:55;8.10;99.90
3860;DHT22;1945;52.036;8.614;2023-02-12T03:19:25;7.60;99.90
3860;DHT22;1945;52.036;8.614;2023-02-12T03:21:57;8.10;99.90
3860;DHT22;1945;52.036;8.614;2023-02-12T03:24:29;8.10;99.90
3860;DHT22;1945;52.036;8.614;2023-02-12T03:27:02;8.10;99.90
3860;DHT22;1945;52.036;8.614;2023-02-12T03:29:30;7.90;99.90
3860;DHT22;1945;52.036;8.614;2023-02-12T03:32:06;8.10;99.90
3860;DHT22;1945;52.036;8.614;2023-02-12T03:34:46;7.90;99.90
3860;DHT22;1945;52.036;8.614;2023-02-12T03:37:20;8.00;99.90
3860;DHT22;1945;52.036;8.614;2023-02-12T03:39:52;7.60;99.90
3860;DHT22;1945;52.036;8.614;2023-02-12T03:42:26;7.90;99.90
3860;DHT22;1945;52.036;8.614;2023-02-12T03:45:00;7.50;99.90
3860;DHT22;1945;52.036;8.614;2023-02-12T03:47:38;8.00;99.90
3860;DHT22;1945;52.036;8.614;2023-02-12T03:50:11;8.00;99.90
3860;DHT22;1945;52.036;8.614;2023-02-12T03:52:40;7.50;99.90
3860;DHT22;1945;52.036;8.614;2023-02-12T03:55:08;7.50;99.90
3860;DHT22;1945;52.036;8.614;2023-02-12T03:57:39;8.00;99.90
3860;DHT22;1945;52.036;8.614;2023-02-12T04:00:10;7.80;99.90
3860;DHT22;1945;52.036;8.614;2023-02-12T04:02:39;7.80;99.90
3860;DHT22;1945;52.036;8.614;2023-02-12T04:05:06;7.40;99.90
3860;DHT22;1945;52.036;8.614;2023-02-12T04:07:34;7.40;99.90
3860;DHT22;1945;52.036;8.614;2023-02-12T04:10:02;7.40;99.90
3860;DHT22;1945;52.036;8.614;2023-02-12T04:12:39;7.40;99.90
3860;DHT22;1945;52.036;8.614;2023-02-12T04:15:34;7.40;99.90
3860;DHT22;1945;52.036;8.614;2023-02-12T04:18:08;7.40;99.90
3860;DHT22;1945;52.036;8.614;2023-02-12T04:20:49;7.80;99.90
3860;DHT22;1945;52.036;8.614;2023-02-12T04:23:31;7.40;99.90
3860;DHT22;1945;52.036;8.614;2023-02-12T04:26:07;7.40;99.90
3860;DHT22;1945;52.036;8.614;2023-02-12T04:28:42;7.80;99.90
3860;DHT22;1945;52.036;8.614;2023-02-12T04:31:19;7.40;99.90
3860;DHT22;1945;52.036;8.614;2023-02-12T04:33:53;7.50;99.90
3860;DHT22;1945;52.036;8.614;2023-02-12T04:36:27;7.80;99.90
3860;DHT22;1945;52.036;8.614;2023-02-12T04:38:59;7.90;99.90
3860;DHT22;1945;52.036;8.614;2023-02-12T04:41:27;7.70;99.90
3860;DHT22;1945;52.036;8.614;2023-02-12T04:43:55;7.80;99.90
3860;DHT22;1945;52.036;8.614;2023-02-12T04:46:22;7.40;99.90
3860;DHT22;1945;52.036;8.614;2023-02-12T04:48:52;7.10;99.90
3860;DHT22;1945;52.036;8.614;2023-02-12T04:51:20;7.40;99.90
3860;DHT22;1945;52.036;8.614;2023-02-12T04:53:46;7.80;99.90
3860;DHT22;1945;52.036;8.614;2023-02-12T04:56:13;7.80;99.90
3860;DHT22;1945;52.036;8.614;2023-02-12T04:58:41;7.90;99.90
3860;DHT22;1945;52.036;8.614;2023-02-12T05:01:08;7.70;99.90
3860;DHT22;1945;52.036;8.614;2023-02-12T05:03:35;7.70;99.90
3860;DHT22;1945;52.036;8.614;2023-02-12T05:06:04;7.40;99.90
3860;DHT22;1945;52.036;8.614;2023-02-12T05:08:31;7.50;99.90
3860;DHT22;1945;52.036;8.614;2023-02-12T05:11:02;7.40;99.90
3860;DHT22;1945;52.036;8.614;2023-02-12T05:13:29;7.40;99.90
3860;DHT22;1945;52.036;8.614;2023-02-12T05:15:56;7.40;99.90
3860;DHT22;1945;52.036;8.614;2023-02-12T05:18:22;7.70;99.90
3860;DHT22;1945;52.036;8.614;2023-02-12T05:20:54;7.80;99.90
3860;DHT22;1945;52.036;8.614;2023-02-12T05:23:24;7.10;99.90
3860;DHT22;1945;52.036;8.614;2023-02-12T05:25:51;7.70;99.90
3860;DHT22;1945;52.036;8.614;2023-02-12T05:28:17;7.80;99.90
3860;DHT22;1945;52.036;8.614;2023-02-12T05:30:44;7.30;99.90
3860;DHT22;1945;52.036;8.614;2023-02-12T05:33:11;7.30;99.90
3860;DHT22;1945;52.036;8.614;2023-02-12T05:35:37;7.60;99.90
3860;DHT22;1945;52.036;8.614;2023-02-12T05:38:04;7.50;99.90
3860;DHT22;1945;52.036;8.614;2023-02-12T05:40:32;7.70;99.90
3860;DHT22;1945;52.036;8.614;2023-02-12T05:43:00;7.20;99.90
3860;DHT22;1945;52.036;8.614;2023-02-12T05:45:27;7.60;99.90
3860;DHT22;1945;52.036;8.614;2023-02-12T05:47:53;7.70;99.90
3860;DHT22;1945;52.036;8.614;2023-02-12T05:50:20;7.50;99.90
3860;DHT22;1945;52.036;8.614;2023-02-12T05:52:47;7.20;99.90
3860;DHT22;1945;52.036;8.614;2023-02-12T05:55:14;7.30;99.90
3860;DHT22;1945;52.036;8.614;2023-02-12T05:57:42;7.10;99.90
3860;DHT22;1945;52.036;8.614;2023-02-12T06:00:11;7.20;99.90
3860;DHT22;1945;52.036;8.614;2023-02-12T06:02:38;7.20;99.90
3860;DHT22;1945;52.036;8.614;2023-02-12T06:05:05;7.60;99.90
3860;DHT22;1945;52.036;8.614;2023-02-12T06:07:32;7.10;99.90
3860;DHT22;1945;52.036;8.614;2023-02-12T06:09:59;7.50;99.90
3860;DHT22;1945;52.036;8.614;2023-02-12T06:12:25;7.10;99.90
3860;DHT22;1945;52.036;8.614;2023-02-12T06:14:53;7.50;99.90
3860;DHT22;1945;52.036;8.614;2023-02-12T06:17:20;7.40;99.90
3860;DHT22;1945;52.036;8.614;2023-02-12T06:19:46;7.10;99.90
3860;DHT22;1945;52.036;8.614;2023-02-12T06:22:13;7.60;99.90
3860;DHT22;1945;52.036;8.614;2023-02-12T06:24:40;7.50;99.90
3860;DHT22;1945;52.036;8.614;2023-02-12T06:27:06;7.40;99.90
3860;DHT22;1945;52.036;8.614;2023-02-12T06:29:33;7.10;99.90
3860;DHT22;1945;52.036;8.614;2023-02-12T06:32:01;7.50;99.90
3860;DHT22;1945;52.036;8.614;2023-02-12T06:34:28;7.50;99.90
3860;DHT22;1945;52.036;8.614;2023-02-12T06:36:54;7.10;99.90
3860;DHT22;1945;52.036;8.614;2023-02-12T06:39:21;7.10;99.90
3860;DHT22;1945;52.036;8.614;2023-02-12T06:41:48;7.20;99.90
3860;DHT22;1945;52.036;8.614;2023-02-12T06:44:14;7.40;99.90
3860;DHT22;1945;52.036;8.614;2023-02-12T06:46:41;7.10;99.90
3860;DHT22;1945;52.036;8.614;2023-02-12T06:49:11;7.40;99.90
3860;DHT22;1945;52.036;8.614;2023-02-12T06:51:38;7.40;99.90
3860;DHT22;1945;52.036;8.614;2023-02-12T06:54:11;7.50;99.90
3860;DHT22;1945;52.036;8.614;2023-02-12T06:56:38;7.00;99.90
3860;DHT22;1945;52.036;8.614;2023-02-12T06:59:05;7.60;99.90
3860;DHT22;1945;52.036;8.614;2023-02-12T07:01:32;7.00;99.90
3860;DHT22;1945;52.036;8.614;2023-02-12T07:04:00;7.00;99.90
3860;DHT22;1945;52.036;8.614;2023-02-12T07:06:30;7.00;99.90
3860;DHT22;1945;52.036;8.614;2023-02-12T07:08:57;7.00;99.90
3860;DHT22;1945;52.036;8.614;2023-02-12T07:11:24;6.90;99.90
3860;DHT22;1945;52.036;8.614;2023-02-12T07:13:51;7.40;99.90
3860;DHT22;1945;52.036;8.614;2023-02-12T07:16:18;7.50;99.90
3860;DHT22;1945;52.036;8.614;2023-02-12T07:18:45;7.50;99.90
3860;DHT22;1945;52.036;8.614;2023-02-12T07:21:13;7.10;99.90
3860;DHT22;1945;52.036;8.614;2023-02-12T07:23:44;7.60;99.90
3860;DHT22;1945;52.036;8.614;2023-02-12T07:26:12;7.50;99.90
3860;DHT22;1945;52.036;8.614;2023-02-12T07:28:40;7.50;99.90
3860;DHT22;1945;52.036;8.614;2023-02-12T07:31:08;7.60;99.90
3860;DHT22;1945;52.036;8.614;2023-02-12T07:33:36;7.10;99.90
3860;DHT22;1945;52.036;8.614;2023-02-12T07:36:04;7.10;99.90
3860;DHT22;1945;52.036;8.614;2023-02-12T07:38:31;7.10;99.90
3860;DHT22;1945;52.036;8.614;2023-02-12T07:41:08;7.10;99.90
3860;DHT22;1945;52.036;8.614;2023-02-12T07:43:34;7.10;99.90
3860;DHT22;1945;52.036;8.614;2023-02-12T07:46:08;7.50;99.90
3860;DHT22;1945;52.036;8.614;2023-02-12T07:48:36;7.50;99.90
3860;DHT22;1945;52.036;8.614;2023-02-12T07:51:05;7.10;99.90
3860;DHT22;1945;52.036;8.614;2023-02-12T07:53:31;7.10;99.90
3860;DHT22;1945;52.036;8.614;2023-02-12T07:56:07;7.10;99.90
3860;DHT22;1945;52.036;8.614;2023-02-12T07:58:34;7.20;99.90
3860;DHT22;1945;52.036;8.614;2023-02-12T08:01:11;7.60;99.90
3860;DHT22;1945;52.036;8.614;2023-02-12T08:03:37;7.20;99.90
3860;DHT22;1945;52.036;8.614;2023-02-12T08:06:07;7.20;99.90
3860;DHT22;1945;52.036;8.614;2023-02-12T08:08:33;6.90;99.90
3860;DHT22;1945;52.036;8.614;2023-02-12T08:11:03;7.20;99.90
3860;DHT22;1945;52.036;8.614;2023-02-12T08:13:32;7.20;99.90
3860;DHT22;1945;52.036;8.614;2023-02-12T08:15:59;7.20;99.90
3860;DHT22;1945;52.036;8.614;2023-02-12T08:18:26;7.20;99.90
3860;DHT22;1945;52.036;8.614;2023-02-12T08:20:52;7.80;99.90
3860;DHT22;1945;52.036;8.614;2023-02-12T08:23:19;7.60;99.90
3860;DHT22;1945;52.036;8.614;2023-02-12T08:25:45;7.70;99.90
3860;DHT22;1945;52.036;8.614;2023-02-12T08:28:12;7.30;99.90
3860;DHT22;1945;52.036;8.614;2023-02-12T08:30:40;7.30;99.90
3860;DHT22;1945;52.036;8.614;2023-02-12T08:33:07;7.70;99.90
3860;DHT22;1945;52.036;8.614;2023-02-12T08:35:33;7.70;99.90
3860;DHT22;1945;52.036;8.614;2023-02-12T08:38:00;7.70;99.90
3860;DHT22;1945;52.036;8.614;2023-02-12T08:40:27;7.20;99.90
3860;DHT22;1945;52.036;8.614;2023-02-12T08:42:53;7.40;99.90
3860;DHT22;1945;52.036;8.614;2023-02-12T08:45:20;7.90;99.90
3860;DHT22;1945;52.036;8.614;2023-02-12T08:47:48;7.70;99.90
3860;DHT22;1945;52.036;8.614;2023-02-12T08:50:15;7.40;99.90
3860;DHT22;1945;52.036;8.614;2023-02-12T08:52:41;7.80;99.90
3860;DHT22;1945;52.036;8.614;2023-02-12T08:55:08;7.90;99.90
3860;DHT22;1945;52.036;8.614;2023-02-12T08:57:35;8.00;99.90
3860;DHT22;1945;52.036;8.614;2023-02-12T09:00:02;7.50;99.90
3860;DHT22;1945;52.036;8.614;2023-02-12T09:02:29;8.00;99.90
3860;DHT22;1945;52.036;8.614;2023-02-12T09:04:57;7.50;99.90
3860;DHT22;1945;52.036;8.614;2023-02-12T09:07:24;7.50;99.90
3860;DHT22;1945;52.036;8.614;2023-02-12T09:09:50;8.00;99.90
3860;DHT22;1945;52.036;8.614;2023-02-12T09:12:17;7.90;99.90
3860;DHT22;1945;52.036;8.614;2023-02-12T09:14:43;8.10;99.90
3860;DHT22;1945;52.036;8.614;2023-02-12T09:17:10;8.00;99.90
3860;DHT22;1945;52.036;8.614;2023-02-12T09:19:37;7.60;99.90
3860;DHT22;1945;52.036;8.614;2023-02-12T09:22:05;7.60;99.90
3860;DHT22;1945;52.036;8.614;2023-02-12T09:24:31;8.00;99.90
3860;DHT22;1945;52.036;8.614;2023-02-12T09:26:58;7.60;99.90
3860;DHT22;1945;52.036;8.614;2023-02-12T09:29:25;7.70;99.90
3860;DHT22;1945;52.036;8.614;2023-02-12T09:31:51;8.20;99.90
3860;DHT22;1945;52.036;8.614;2023-02-12T09:34:19;7.70;99.90
3860;DHT22;1945;52.036;8.614;2023-02-12T09:36:46;7.60;99.90
3860;DHT22;1945;52.036;8.614;2023-02-12T09:39:14;8.00;99.90
3860;DHT22;1945;52.036;8.614;2023-02-12T09:42:12;8.10;99.90
3860;DHT22;1945;52.036;8.614;2023-02-12T09:44:45;7.80;99.90
3860;DHT22;1945;52.036;8.614;2023-02-12T09:47:20;7.80;99.90
3860;DHT22;1945;52.036;8.614;2023-02-12T09:50:00;8.20;99.90
3860;DHT22;1945;52.036;8.614;2023-02-12T09:52:29;7.80;99.90
3860;DHT22;1945;52.036;8.614;2023-02-12T09:54:57;7.90;99.90
3860;DHT22;1945;52.036;8.614;2023-02-12T09:57:27;8.00;99.90
3860;DHT22;1945;52.036;8.614;2023-02-12T09:59:58;8.30;99.90
3860;DHT22;1945;52.036;8.614;2023-02-12T10:02:25;8.00;99.90
3860;DHT22;1945;52.036;8.614;2023-02-12T10:04:52;8.30;99.90
3860;DHT22;1945;52.036;8.614;2023-02-12T10:07:29;8.50;99.90
3860;DHT22;1945;52.036;8.614;2023-02-12T10:10:10;8.40;99.90
3860;DHT22;1945;52.036;8.614;2023-02-12T10:12:46;8.40;99.90
3860;DHT22;1945;52.036;8.614;2023-02-12T10:15:24;8.00;99.90
3860;DHT22;1945;52.036;8.614;2023-02-12T10:17:57;8.20;99.90
3860;DHT22;1945;52.036;8.614;2023-02-12T10:20:44;8.20;99.90
3860;DHT22;1945;52.036;8.614;2023-02-12T10:23:36;8.20;99.90
3860;DHT22;1945;52.036;8.614;2023-02-12T10:26:16;8.30;99.90
3860;DHT22;1945;52.036;8.614;2023-02-12T10:28:44;8.30;99.90
3860;DHT22;1945;52.036;8.614;2023-02-12T10:31:14;8.60;99.90
3860;DHT22;1945;52.036;8.614;2023-02-12T10:33:44;8.40;99.90
3860;DHT22;1945;52.036;8.614;2023-02-12T10:36:18;8.90;99.90
3860;DHT22;1945;52.036;8.614;2023-02-12T10:38:49;8.90;99.90
3860;DHT22;1945;52.036;8.614;2023-02-12T10:41:18;8.50;99.90
3860;DHT22;1945;52.036;8.614;2023-02-12T10:43:45;8.50;99.90
3860;DHT22;1945;52.036;8.614;2023-02-12T10:46:13;9.00;99.90
3860;DHT22;1945;52.036;8.614;2023-02-12T10:48:43;8.60;99.90
3860;DHT22;1945;52.036;8.614;2023-02-12T10:51:24;8.50;99.90
3860;DHT22;1945;52.036;8.614;2023-02-12T10:53:55;9.00;99.90
3860;DHT22;1945;52.036;8.614;2023-02-12T10:56:24;9.10;99.90
3860;DHT22;1945;52.036;8.614;2023-02-12T10:58:54;9.20;99.90
3860;DHT22;1945;52.036;8.614;2023-02-12T11:01:24;8.80;99.90
3860;DHT22;1945;52.036;8.614;2023-02-12T11:03:52;9.20;98.90
3860;DHT22;1945;52.036;8.614;2023-02-12T11:06:20;8.90;99.90
3860;DHT22;1945;52.036;8.614;2023-02-12T11:08:48;8.80;87.50
3860;DHT22;1945;52.036;8.614;2023-02-12T11:11:17;9.40;91.10
3860;DHT22;1945;52.036;8.614;2023-02-12T11:13:53;9.40;1.70
3860;DHT22;1945;52.036;8.614;2023-02-12T11:16:27;8.90;8.20
3860;DHT22;1945;52.036;8.614;2023-02-12T11:18:58;8.90;1.00
3860;DHT22;1945;52.036;8.614;2023-02-12T11:21:25;9.30;1.00
3860;DHT22;1945;52.036;8.614;2023-02-12T11:23:52;9.30;1.00
3860;DHT22;1945;52.036;8.614;2023-02-12T11:26:25;9.50;1.00
3860;DHT22;1945;52.036;8.614;2023-02-12T11:28:55;9.40;1.00
3860;DHT22;1945;52.036;8.614;2023-02-12T11:31:23;9.40;1.00
3860;DHT22;1945;52.036;8.614;2023-02-12T11:34:07;9.40;1.00
3860;DHT22;1945;52.036;8.614;2023-02-12T11:36:35;9.40;1.00
3860;DHT22;1945;52.036;8.614;2023-02-12T11:39:03;9.10;1.00
3860;DHT22;1945;52.036;8.614;2023-02-12T11:41:34;9.30;1.00
3860;DHT22;1945;52.036;8.614;2023-02-12T11:44:08;9.70;1.00
3860;DHT22;1945;52.036;8.614;2023-02-12T11:46:35;9.70;1.00
3860;DHT22;1945;52.036;8.614;2023-02-12T11:49:03;9.50;1.00
3860;DHT22;1945;52.036;8.614;2023-02-12T11:51:35;9.90;1.00
3860;DHT22;1945;52.036;8.614;2023-02-12T11:54:03;9.90;1.00
3860;DHT22;1945;52.036;8.614;2023-02-12T11:56:40;9.90;1.00
3860;DHT22;1945;52.036;8.614;2023-02-12T11:59:28;9.50;1.00
3860;DHT22;1945;52.036;8.614;2023-02-12T12:02:00;9.30;1.00
3860;DHT22;1945;52.036;8.614;2023-02-12T12:04:28;9.50;1.00
3860;DHT22;1945;52.036;8.614;2023-02-12T12:07:01;9.70;1.00
3860;DHT22;1945;52.036;8.614;2023-02-12T12:09:33;9.60;1.00
3860;DHT22;1945;52.036;8.614;2023-02-12T12:12:09;9.40;1.00
3860;DHT22;1945;52.036;8.614;2023-02-12T12:14:43;9.60;1.00
3860;DHT22;1945;52.036;8.614;2023-02-12T12:17:37;9.60;1.00
3860;DHT22;1945;52.036;8.614;2023-02-12T12:20:27;9.70;1.00
3860;DHT22;1945;52.036;8.614;2023-02-12T12:22:58;9.50;1.00
3860;DHT22;1945;52.036;8.614;2023-02-12T12:25:28;9.70;1.00
3860;DHT22;1945;52.036;8.614;2023-02-12T12:28:04;9.70;1.00
3860;DHT22;1945;52.036;8.614;2023-02-12T12:30:47;9.20;1.00
3860;DHT22;1945;52.036;8.614;2023-02-12T12:33:21;9.30;1.00
3860;DHT22;1945;52.036;8.614;2023-02-12T12:35:59;9.90;1.00
3860;DHT22;1945;52.036;8.614;2023-02-12T12:38:37;9.40;1.00
3860;DHT22;1945;52.036;8.614;2023-02-12T12:41:13;9.90;1.00
3860;DHT22;1945;52.036;8.614;2023-02-12T12:43:49;9.30;1.00
3860;DHT22;1945;52.036;8.614;2023-02-12T12:46:33;9.30;1.00
3860;DHT22;1945;52.036;8.614;2023-02-12T12:52:28;9.30;1.00
3860;DHT22;1945;52.036;8.614;2023-02-12T12:57:55;9.70;1.00
3860;DHT22;1945;52.036;8.614;2023-02-12T13:00:43;9.40;99.90
3860;DHT22;1945;52.036;8.614;2023-02-12T13:06:40;9.60;99.90
3860;DHT22;1945;52.036;8.614;2023-02-12T13:09:26;9.30;99.90
3860;DHT22;1945;52.036;8.614;2023-02-12T13:12:07;9.40;99.90
3860;DHT22;1945;52.036;8.614;2023-02-12T13:14:40;9.30;99.90
3860;DHT22;1945;52.036;8.614;2023-02-12T13:17:12;9.70;99.90
3860;DHT22;1945;52.036;8.614;2023-02-12T13:19:51;9.40;99.90
3860;DHT22;1945;52.036;8.614;2023-02-12T13:22:26;9.40;99.90
3860;DHT22;1945;52.036;8.614;2023-02-12T13:24:58;9.40;99.90
3860;DHT22;1945;52.036;8.614;2023-02-12T13:27:31;9.30;99.90
3860;DHT22;1945;52.036;8.614;2023-02-12T13:30:04;9.30;99.90
3860;DHT22;1945;52.036;8.614;2023-02-12T13:32:36;9.30;99.90
3860;DHT22;1945;52.036;8.614;2023-02-12T13:35:12;9.60;99.90
3860;DHT22;1945;52.036;8.614;2023-02-12T13:37:43;9.40;99.90
3860;DHT22;1945;52.036;8.614;2023-02-12T13:40:14;9.90;99.90
3860;DHT22;1945;52.036;8.614;2023-02-12T13:42:46;9.60;99.90
3860;DHT22;1945;52.036;8.614;2023-02-12T13:45:20;9.70;99.90
3860;DHT22;1945;52.036;8.614;2023-02-12T13:48:00;9.60;70.70
3860;DHT22;1945;52.036;8.614;2023-02-12T13:50:36;9.60;96.80
3860;DHT22;1945;52.036;8.614;2023-02-12T13:53:16;9.60;90.90
3860;DHT22;1945;52.036;8.614;2023-02-12T13:56:02;10.00;47.70
3860;DHT22;1945;52.036;8.614;2023-02-12T13:58:48;10.10;34.70
3860;DHT22;1945;52.036;8.614;2023-02-12T14:01:36;9.80;99.90
3860;DHT22;1945;52.036;8.614;2023-02-12T14:04:26;9.50;94.70
3860;DHT22;1945;52.036;8.614;2023-02-12T14:06:57;9.50;99.90
3860;DHT22;1945;52.036;8.614;2023-02-12T14:09:30;9.90;95.10
3860;DHT22;1945;52.036;8.614;2023-02-12T14:11:59;9.90;84.20
3860;DHT22;1945;52.036;8.614;2023-02-12T14:14:29;9.50;78.60
3860;DHT22;1945;52.036;8.614;2023-02-12T14:16:56;9.90;25.30
3860;DHT22;1945;52.036;8.614;2023-02-12T14:25:38;9.40;77.00
3860;DHT22;1945;52.036;8.614;2023-02-12T14:28:12;9.40;54.80
3860;DHT22;1945;52.036;8.614;2023-02-12T14:30:42;9.70;75.20
3860;DHT22;1945;52.036;8.614;2023-02-12T14:33:18;9.80;96.60
3860;DHT22;1945;52.036;8.614;2023-02-12T14:35:46;9.40;60.60
3860;DHT22;1945;52.036;8.614;2023-02-12T14:41:32;9.40;99.90
3860;DHT22;1945;52.036;8.614;2023-02-12T14:44:45;9.40;99.90
3860;DHT22;1945;52.036;8.614;2023-02-12T14:50:15;9.40;99.90
3860;DHT22;1945;52.036;8.614;2023-02-12T14:52:47;9.50;99.90
3860;DHT22;1945;52.036;8.614;2023-02-12T14:55:22;9.70;99.90
3860;DHT22;1945;52.036;8.614;2023-02-12T14:57:55;9.30;99.90
3860;DHT22;1945;52.036;8.614;2023-02-12T15:00:27;9.80;99.90
3860;DHT22;1945;52.036;8.614;2023-02-12T15:02:59;9.40;99.90
3860;DHT22;1945;52.036;8.614;2023-02-12T15:05:29;9.10;99.90
3860;DHT22;1945;52.036;8.614;2023-02-12T15:07:59;9.70;99.90
3860;DHT22;1945;52.036;8.614;2023-02-12T15:10:29;9.70;99.90
3860;DHT22;1945;52.036;8.614;2023-02-12T15:13:07;9.60;99.90
3860;DHT22;1945;52.036;8.614;2023-02-12T15:15:38;9.60;99.90
3860;DHT22;1945;52.036;8.614;2023-02-12T15:18:11;9.70;99.90
3860;DHT22;1945;52.036;8.614;2023-02-12T15:20:45;9.30;99.90
3860;DHT22;1945;52.036;8.614;2023-02-12T15:23:38;9.30;99.90
3860;DHT22;1945;52.036;8.614;2023-02-12T15:26:11;9.70;99.90
3860;DHT22;1945;52.036;8.614;2023-02-12T15:28:41;9.20;99.90
3860;DHT22;1945;52.036;8.614;2023-02-12T15:31:08;9.30;99.90
3860;DHT22;1945;52.036;8.614;2023-02-12T15:33:39;9.20;99.90
3860;DHT22;1945;52.036;8.614;2023-02-12T15:36:08;9.20;99.90
3860;DHT22;1945;52.036;8.614;2023-02-12T15:38:37;9.20;99.90
3860;DHT22;1945;52.036;8.614;2023-02-12T15:41:04;9.50;99.90
3860;DHT22;1945;52.036;8.614;2023-02-12T15:43:33;9.70;99.90
3860;DHT22;1945;52.036;8.614;2023-02-12T15:46:03;9.10;99.90
3860;DHT22;1945;52.036;8.614;2023-02-12T15:48:32;9.10;99.90
3860;DHT22;1945;52.036;8.614;2023-02-12T15:51:04;9.00;99.90
3860;DHT22;1945;52.036;8.614;2023-02-12T15:53:33;9.10;99.90
3860;DHT22;1945;52.036;8.614;2023-02-12T15:56:02;9.40;99.90
3860;DHT22;1945;52.036;8.614;2023-02-12T15:58:31;9.00;99.90
3860;DHT22;1945;52.036;8.614;2023-02-12T16:01:05;8.80;99.90
3860;DHT22;1945;52.036;8.614;2023-02-12T16:03:33;8.90;99.90
3860;DHT22;1945;52.036;8.614;2023-02-12T16:06:02;8.90;99.90
3860;DHT22;1945;52.036;8.614;2023-02-12T16:08:30;8.50;99.90
3860;DHT22;1945;52.036;8.614;2023-02-12T16:10:58;9.00;99.90
3860;DHT22;1945;52.036;8.614;2023-02-12T16:13:34;9.30;99.90
3860;DHT22;1945;52.036;8.614;2023-02-12T16:16:14;8.90;99.90
3860;DHT22;1945;52.036;8.614;2023-02-12T16:18:42;8.90;99.90
3860;DHT22;1945;52.036;8.614;2023-02-12T16:21:12;9.00;99.90
3860;DHT22;1945;52.036;8.614;2023-02-12T16:23:42;9.30;99.90
3860;DHT22;1945;52.036;8.614;2023-02-12T16:26:15;8.90;99.90
3860;DHT22;1945;52.036;8.614;2023-02-12T16:28:45;8.90;99.90
3860;DHT22;1945;52.036;8.614;2023-02-12T16:31:15;9.30;99.90
3860;DHT22;1945;52.036;8.614;2023-02-12T16:33:46;9.40;99.90
3860;DHT22;1945;52.036;8.614;2023-02-12T16:36:27;9.00;99.90
3860;DHT22;1945;52.036;8.614;2023-02-12T16:38:56;9.30;99.90
3860;DHT22;1945;52.036;8.614;2023-02-12T16:41:25;9.20;99.90
3860;DHT22;1945;52.036;8.614;2023-02-12T16:44:22;9.30;99.90
3860;DHT22;1945;52.036;8.614;2023-02-12T16:46:53;9.30;99.90
3860;DHT22;1945;52.036;8.614;2023-02-12T16:49:22;8.70;99.90
3860;DHT22;1945;52.036;8.614;2023-02-12T16:51:51;9.00;99.90
3860;DHT22;1945;52.036;8.614;2023-02-12T16:54:28;8.30;99.90
3860;DHT22;1945;52.036;8.614;2023-02-12T16:56:55;8.90;99.90
3860;DHT22;1945;52.036;8.614;2023-02-12T16:59:23;8.70;99.90
3860;DHT22;1945;52.036;8.614;2023-02-12T17:01:59;8.90;1.00
3860;DHT22;1945;52.036;8.614;2023-02-12T17:04:26;8.60;1.00
3860;DHT22;1945;52.036;8.614;2023-02-12T17:06:53;8.60;1.00
3860;DHT22;1945;52.036;8.614;2023-02-12T17:09:20;8.60;1.00